Kezdőlap
METAR-TAF:

METAR-TAF

Repülőterek :

Franceville, Gabon

földrajzi szélesség: 01-39S, földrajzi hosszúság: 013-26E, magasság: 441 m

Jelenlegi meteorológiai megfigyelések

A jelentés 58 perccel ezelõtt készült, 14:00 UTC
Nyugat-délnyugati szél 4 kt, déli és nyugat-északnyugati között változik
Hőmérséklet 32°C
Páratartalom 67%
Légköri nyomás 1010 hPa
Látótávolság 10 km, vagy több
Szakadozott felhőzet 1600 lábon
Kevés felhő 2300 lábon, Cumulonimbus.
zivatar

METAR: FOON 181400Z 24004KT 190V300 9999 TS BKN016 FEW023CB 32/25 Q1010

Idő: 15:58 (14:58 UTC)


TAF: hiányzik

Meteorológiai megfigyelések és előrejelzések több, mint 4000 repülőtéren (METAR és TAF jelentéseket).

A térképen piros és sárga pontok jelzik az elérhető meteorológiai állomásokat.

Mozgassa az egeret a pont fölött, hogy megjelenjen az állomás neve.

Azután kattintson az időjárási megfigyelések és előrejelzések megtekintéséhez.

A térkép megváltoztatása: kattintson a fekete keresztel jelölt zöld gombra ráközelítéshez, a vonallal jelölt zöld gombra távolításhoz, vagy a zöld nyilakra a szomszédos térképek eléréséhez.


METAR-TAF: